Time;durP1;ratioP1;P1;durP2;ratioP2;P2;SDS_P1;SDS_P2;PMS_P1;PMS_P2;Temp;Humidity;BMP_temperature;BMP_pressure;BME280_temperature;BME280_humidity;BME280_pressure;Samples;Min_cycle;Max_cycle;Signal;HPM_P1;HPM_P2
2022/10/08 00:01:01;;;;;;;9.50;2.83;;;11.10;95.80;;;;;;5111446;27;20103;-68
2022/10/08 00:03:28;;;;;;;7.82;2.53;;;11.10;95.90;;;;;;5094006;27;20043;-68
2022/10/08 00:06:08;;;;;;;7.38;2.53;;;11.10;95.90;;;;;;5080466;27;20043;-68
2022/10/08 00:08:35;;;;;;;8.45;2.55;;;11.10;96.00;;;;;;5106926;27;20051;-68
2022/10/08 00:11:12;;;;;;;11.88;2.30;;;11.10;96.10;;;;;;5108617;27;20059;-69
2022/10/08 00:13:44;;;;;;;7.80;2.33;;;11.10;96.30;;;;;;5124160;27;20091;-69
2022/10/08 00:16:22;;;;;;;7.85;2.20;;;11.20;96.40;;;;;;5103483;27;20051;-68
2022/10/08 00:18:49;;;;;;;9.48;2.80;;;11.20;96.30;;;;;;5098895;27;20046;-68
2022/10/08 00:21:24;;;;;;;7.75;2.20;;;11.20;96.20;;;;;;5106524;27;20053;-68
2022/10/08 00:23:51;;;;;;;7.38;2.55;;;11.20;96.10;;;;;;5078958;27;20070;-68
2022/10/08 00:26:22;;;;;;;4.50;2.00;;;11.20;96.10;;;;;;5091924;27;20042;-68
2022/10/08 00:28:48;;;;;;;8.80;2.17;;;11.10;96.10;;;;;;5125341;27;20043;-68
2022/10/08 00:31:22;;;;;;;7.22;2.10;;;11.00;96.30;;;;;;5109602;27;20179;-68
2022/10/08 00:33:53;;;;;;;8.88;2.35;;;11.00;96.40;;;;;;5093853;27;20050;-68
2022/10/08 00:36:19;;;;;;;6.43;1.90;;;11.00;96.50;;;;;;5127148;27;20051;-68
2022/10/08 00:38:45;;;;;;;5.80;2.13;;;11.00;96.60;;;;;;5093529;27;20108;-68
2022/10/08 00:41:17;;;;;;;7.43;2.33;;;11.00;96.60;;;;;;5126945;27;20055;-68
2022/10/08 00:43:51;;;;;;;7.38;2.22;;;11.00;96.70;;;;;;5080334;27;20040;-68
2022/10/08 00:46:21;;;;;;;12.73;2.35;;;11.00;96.70;;;;;;5116150;27;20527;-69
2022/10/08 00:48:49;;;;;;;6.80;2.35;;;11.00;96.70;;;;;;5113143;27;20464;-70
2022/10/08 00:51:15;;;;;;;5.68;2.47;;;11.00;96.80;;;;;;5088803;27;20038;-68
2022/10/08 00:53:41;;;;;;;7.10;2.50;;;11.00;96.90;;;;;;5091820;27;20638;-68
2022/10/08 00:56:08;;;;;;;7.05;2.60;;;11.00;97.00;;;;;;5097051;27;20115;-68
2022/10/08 00:58:34;;;;;;;8.38;2.63;;;11.00;97.10;;;;;;5106934;27;20073;-68
2022/10/08 01:01:00;;;;;;;11.32;2.90;;;11.00;97.50;;;;;;5114320;27;20040;-67
2022/10/08 01:03:26;;;;;;;8.40;2.17;;;11.00;97.60;;;;;;5093806;27;20054;-70
2022/10/08 01:06:29;;;;;;;7.05;2.47;;;11.00;98.00;;;;;;5087523;28;20070;-69
2022/10/08 01:09:10;;;;;;;10.77;2.58;;;11.00;98.20;;;;;;5124550;27;20043;-68
2022/10/08 01:12:02;;;;;;;7.20;2.63;;;11.00;98.50;;;;;;5104456;27;20042;-69
2022/10/08 01:14:51;;;;;;;5.97;2.30;;;11.00;98.10;;;;;;5108341;27;20051;-68
2022/10/08 01:17:26;;;;;;;6.90;2.67;;;11.10;98.50;;;;;;5088085;27;20039;-68
2022/10/08 01:20:03;;;;;;;12.02;3.00;;;11.10;98.30;;;;;;5107862;27;20050;-68
2022/10/08 01:22:35;;;;;;;9.98;2.60;;;11.10;99.00;;;;;;5108369;27;20425;-68
2022/10/08 01:25:32;;;;;;;10.38;3.05;;;11.10;99.10;;;;;;5119583;27;20039;-68
2022/10/08 01:28:18;;;;;;;11.98;2.60;;;11.10;98.90;;;;;;5087362;28;20047;-69
2022/10/08 01:31:29;;;;;;;10.10;3.13;;;11.20;99.30;;;;;;5084921;27;20380;-68
2022/10/08 01:34:11;;;;;;;10.98;3.15;;;11.20;99.10;;;;;;5125954;27;20127;-68
2022/10/08 01:36:42;;;;;;;12.10;2.88;;;11.20;99.70;;;;;;5108344;27;20381;-68
2022/10/08 01:39:10;;;;;;;8.48;2.97;;;11.20;99.70;;;;;;5102650;27;20064;-68
2022/10/08 01:41:36;;;;;;;6.18;2.65;;;11.10;99.90;;;;;;5075026;27;20047;-68
2022/10/08 01:44:14;;;;;;;11.65;2.88;;;11.20;99.60;;;;;;5119712;27;20047;-68
2022/10/08 01:46:41;;;;;;;8.48;2.50;;;11.20;99.50;;;;;;5110598;27;20066;-68
2022/10/08 01:49:11;;;;;;;6.28;2.45;;;11.20;99.40;;;;;;5098098;27;20099;-68
2022/10/08 01:51:52;;;;;;;9.32;2.78;;;11.20;99.40;;;;;;5096422;27;20073;-68
2022/10/08 01:54:17;;;;;;;12.52;2.63;;;11.10;99.90;;;;;;5102486;27;20480;-68
2022/10/08 01:56:44;;;;;;;9.75;2.70;;;11.20;99.90;;;;;;5087424;28;20048;-69
2022/10/08 01:59:16;;;;;;;8.30;2.85;;;11.20;99.90;;;;;;5089883;27;20414;-68
2022/10/08 02:01:54;;;;;;;6.97;2.60;;;11.20;99.90;;;;;;5112624;27;20448;-68
2022/10/08 02:04:32;;;;;;;11.23;2.80;;;11.20;99.90;;;;;;5119223;27;20456;-68
2022/10/08 02:06:58;;;;;;;8.18;2.70;;;11.20;99.90;;;;;;5071143;27;20108;-68
2022/10/08 02:09:25;;;;;;;11.35;3.25;;;11.30;99.90;;;;;;5084472;28;20043;-67
2022/10/08 02:11:51;;;;;;;8.88;2.28;;;11.30;99.80;;;;;;5107919;27;20043;-67
2022/10/08 02:14:17;;;;;;;7.13;2.50;;;11.30;99.90;;;;;;5127098;27;20738;-68
2022/10/08 02:16:51;;;;;;;9.00;2.42;;;11.40;99.90;;;;;;5103004;27;20062;-68
2022/10/08 02:19:29;;;;;;;10.93;2.67;;;11.40;99.70;;;;;;5108332;27;20129;-68
2022/10/08 02:21:55;;;;;;;8.88;2.88;;;11.40;99.90;;;;;;5060872;28;20040;-68
2022/10/08 02:24:25;;;;;;;7.65;2.90;;;11.40;99.90;;;;;;5088500;27;20131;-67
2022/10/08 02:26:53;;;;;;;13.70;3.67;;;11.30;99.90;;;;;;5108357;27;20114;-68
2022/10/08 02:29:40;;;;;;;8.95;3.35;;;11.20;99.90;;;;;;5108659;27;20053;-67
2022/10/08 02:32:19;;;;;;;11.43;2.97;;;11.20;99.90;;;;;;5107912;27;20134;-68
2022/10/08 02:34:53;;;;;;;9.60;3.10;;;11.10;99.90;;;;;;5104142;27;20082;-68
2022/10/08 02:37:23;;;;;;;10.23;3.05;;;11.00;99.90;;;;;;5088132;28;20380;-67
2022/10/08 02:39:52;;;;;;;12.27;3.15;;;11.10;99.90;;;;;;5095306;28;20598;-67
2022/10/08 02:42:20;;;;;;;10.77;2.90;;;11.10;99.90;;;;;;5078482;28;20559;-68
2022/10/08 02:45:02;;;;;;;12.75;3.28;;;11.00;99.90;;;;;;5101545;28;20523;-67
2022/10/08 02:47:29;;;;;;;11.23;3.10;;;11.00;99.90;;;;;;5084066;28;20043;-67
2022/10/08 02:49:57;;;;;;;11.70;3.95;;;11.00;99.90;;;;;;5067456;28;20043;-67
2022/10/08 02:52:26;;;;;;;7.45;2.90;;;11.00;99.90;;;;;;5124978;28;20063;-67
2022/10/08 02:54:51;;;;;;;13.40;3.30;;;11.00;99.90;;;;;;5107710;28;20046;-67
2022/10/08 02:57:24;;;;;;;10.40;3.25;;;11.00;99.90;;;;;;5111531;28;20047;-67
2022/10/08 02:59:50;;;;;;;12.32;3.20;;;10.90;99.90;;;;;;5124666;28;20043;-67
2022/10/08 03:02:30;;;;;;;10.20;3.35;;;10.90;99.90;;;;;;5084617;28;20039;-67
2022/10/08 03:05:00;;;;;;;8.25;2.97;;;10.90;99.90;;;;;;5092609;28;20047;-67
2022/10/08 03:07:33;;;;;;;9.38;2.95;;;11.00;99.90;;;;;;5108080;28;21063;-68
2022/10/08 03:10:04;;;;;;;11.40;3.58;;;11.00;99.90;;;;;;5109019;28;20039;-68
2022/10/08 03:12:31;;;;;;;12.52;2.83;;;11.00;99.90;;;;;;5091211;28;20050;-68
2022/10/08 03:14:56;;;;;;;13.57;3.45;;;11.00;99.90;;;;;;5084619;28;20047;-67
2022/10/08 03:17:30;;;;;;;9.32;2.88;;;11.00;99.90;;;;;;5094925;28;20061;-67
2022/10/08 03:19:56;;;;;;;9.73;2.80;;;11.00;99.90;;;;;;5102542;28;20116;-71
2022/10/08 03:22:23;;;;;;;12.23;2.60;;;11.00;99.90;;;;;;5099629;28;20035;-71
2022/10/08 03:24:48;;;;;;;12.43;3.15;;;11.00;99.90;;;;;;5081206;28;20458;-71
2022/10/08 03:27:14;;;;;;;13.65;2.40;;;11.00;99.90;;;;;;5111789;28;20041;-72
2022/10/08 03:29:40;;;;;;;11.55;2.85;;;10.90;99.90;;;;;;5086166;28;20050;-70
2022/10/08 03:32:06;;;;;;;14.63;2.90;;;10.90;99.90;;;;;;5097122;28;20147;-70
2022/10/08 03:34:32;;;;;;;9.85;2.92;;;11.00;99.90;;;;;;5108215;27;20055;-71
2022/10/08 03:36:57;;;;;;;8.48;2.40;;;11.00;99.90;;;;;;5117646;27;20057;-71
2022/10/08 03:39:24;;;;;;;10.90;2.63;;;11.00;99.90;;;;;;5073577;27;20039;-71
2022/10/08 03:41:50;;;;;;;9.82;2.42;;;11.00;99.90;;;;;;5121519;27;20039;-71
2022/10/08 03:44:15;;;;;;;11.15;3.10;;;11.00;99.90;;;;;;5120417;27;20111;-71
2022/10/08 03:46:41;;;;;;;11.50;2.38;;;11.00;99.90;;;;;;5101660;27;20053;-71
2022/10/08 03:49:07;;;;;;;11.77;2.95;;;11.00;99.90;;;;;;5105912;27;20042;-71
2022/10/08 03:51:32;;;;;;;11.88;2.67;;;11.00;99.90;;;;;;5115130;27;20070;-72
2022/10/08 03:53:58;;;;;;;11.20;3.05;;;11.00;99.90;;;;;;5098162;27;20484;-71
2022/10/08 03:56:24;;;;;;;9.75;2.88;;;11.00;99.90;;;;;;5108034;27;20055;-71
2022/10/08 03:58:57;;;;;;;9.70;2.95;;;11.10;99.90;;;;;;5088358;27;20043;-72
2022/10/08 04:01:23;;;;;;;11.98;2.50;;;11.00;99.90;;;;;;5090838;27;20058;-71
2022/10/08 04:03:49;;;;;;;7.30;2.30;;;11.00;99.90;;;;;;5103320;27;20050;-71
2022/10/08 04:06:15;;;;;;;11.10;2.72;;;11.00;99.90;;;;;;5126315;27;20699;-72
2022/10/08 04:08:40;;;;;;;10.27;2.67;;;11.10;99.90;;;;;;5084725;27;20130;-71
2022/10/08 04:11:08;;;;;;;11.40;2.60;;;11.00;99.90;;;;;;5098233;27;20043;-71
2022/10/08 04:13:34;;;;;;;14.15;3.75;;;11.10;99.90;;;;;;5097603;27;20464;-71
2022/10/08 04:16:01;;;;;;;14.55;2.85;;;11.00;99.90;;;;;;5108979;27;20057;-71
2022/10/08 04:18:27;;;;;;;9.00;2.63;;;11.10;99.90;;;;;;5107099;27;20088;-71
2022/10/08 04:20:59;;;;;;;11.48;2.65;;;11.10;99.90;;;;;;5106806;27;20072;-71
2022/10/08 04:23:25;;;;;;;12.55;2.30;;;11.10;99.90;;;;;;5109396;27;20409;-72
2022/10/08 04:25:51;;;;;;;11.48;2.47;;;11.10;99.90;;;;;;5094547;27;20046;-70
2022/10/08 04:28:17;;;;;;;9.30;2.40;;;11.20;99.90;;;;;;5095245;27;20039;-71
2022/10/08 04:30:52;;;;;;;13.90;3.25;;;11.20;99.90;;;;;;5108642;27;20433;-71
2022/10/08 04:33:18;;;;;;;16.13;2.55;;;11.20;99.90;;;;;;5097458;27;20089;-71
2022/10/08 04:35:44;;;;;;;12.35;2.72;;;11.20;99.90;;;;;;5087543;27;20452;-71
2022/10/08 04:38:10;;;;;;;15.88;3.65;;;11.20;99.90;;;;;;5099457;27;20508;-72
2022/10/08 04:40:35;;;;;;;9.93;2.40;;;11.30;99.90;;;;;;5145366;27;20357;-72
2022/10/08 04:43:01;;;;;;;13.02;2.80;;;11.30;99.90;;;;;;5099844;27;20060;-72
2022/10/08 04:45:27;;;;;;;8.77;2.92;;;11.30;99.90;;;;;;5111959;27;20054;-71
2022/10/08 04:47:53;;;;;;;11.52;3.40;;;11.30;99.90;;;;;;5100186;27;20042;-73
2022/10/08 04:50:18;;;;;;;13.40;3.53;;;11.30;99.90;;;;;;5099436;27;20724;-72
2022/10/08 04:52:44;;;;;;;10.70;3.53;;;11.30;99.90;;;;;;5129495;27;20526;-72
2022/10/08 04:55:10;;;;;;;11.20;3.45;;;11.30;99.90;;;;;;5080385;27;20051;-72
2022/10/08 04:57:37;;;;;;;10.77;3.55;;;11.20;99.90;;;;;;5096965;27;20043;-71
2022/10/08 05:00:04;;;;;;;14.23;3.75;;;11.30;99.90;;;;;;5104413;27;20468;-71
2022/10/08 05:02:32;;;;;;;15.07;3.97;;;11.30;99.90;;;;;;5073061;27;20066;-71
2022/10/08 05:04:57;;;;;;;10.93;2.92;;;11.30;99.90;;;;;;5095799;27;20043;-72
2022/10/08 05:07:24;;;;;;;17.25;3.58;;;11.40;99.90;;;;;;5096373;27;20088;-71
2022/10/08 05:09:50;;;;;;;12.95;3.45;;;11.40;99.90;;;;;;5090631;27;20074;-71
2022/10/08 05:12:16;;;;;;;13.82;3.40;;;11.50;99.90;;;;;;5115340;27;20077;-71
2022/10/08 05:14:41;;;;;;;12.25;3.13;;;11.60;99.90;;;;;;5133831;27;20054;-73
2022/10/08 05:17:07;;;;;;;15.80;2.80;;;11.60;99.80;;;;;;5096803;27;20042;-74
2022/10/08 05:19:34;;;;;;;16.23;3.85;;;11.60;99.70;;;;;;5087135;27;20053;-74
2022/10/08 05:22:00;;;;;;;13.90;3.03;;;11.70;99.50;;;;;;5105569;27;20078;-74
2022/10/08 05:24:25;;;;;;;10.95;2.15;;;11.80;99.30;;;;;;5104778;27;20066;-75
2022/10/08 05:26:51;;;;;;;17.13;3.53;;;11.80;99.40;;;;;;5109659;27;20095;-75
2022/10/08 05:29:17;;;;;;;10.90;2.30;;;11.80;99.20;;;;;;5077499;27;20035;-74
2022/10/08 05:31:43;;;;;;;12.85;2.58;;;11.90;99.20;;;;;;5132883;27;20038;-74
2022/10/08 05:34:11;;;;;;;8.88;2.33;;;11.90;99.20;;;;;;5127921;27;20069;-74
2022/10/08 05:36:37;;;;;;;12.73;2.10;;;11.90;98.90;;;;;;5102857;27;20067;-74
2022/10/08 05:39:03;;;;;;;8.82;1.98;;;11.90;98.90;;;;;;5106670;27;20395;-74
2022/10/08 05:41:30;;;;;;;13.90;2.35;;;11.90;98.90;;;;;;5110680;27;20054;-74
2022/10/08 05:43:56;;;;;;;11.85;2.90;;;11.90;98.90;;;;;;5083461;27;20046;-71
2022/10/08 05:46:24;;;;;;;9.52;2.65;;;11.90;99.00;;;;;;5078968;27;20799;-72
2022/10/08 05:48:52;;;;;;;13.52;2.80;;;11.90;98.90;;;;;;5095962;27;20053;-71
2022/10/08 05:51:18;;;;;;;11.30;2.65;;;11.90;99.00;;;;;;5088449;27;20043;-71
2022/10/08 05:53:45;;;;;;;9.07;2.53;;;11.90;99.10;;;;;;5130367;27;20385;-71
2022/10/08 05:56:12;;;;;;;11.43;2.65;;;11.80;99.10;;;;;;5110113;27;20061;-72
2022/10/08 05:58:38;;;;;;;13.10;2.50;;;11.90;99.20;;;;;;5108947;27;20442;-72
2022/10/08 06:01:06;;;;;;;11.13;2.83;;;11.90;99.30;;;;;;5108139;27;20046;-72
2022/10/08 06:03:32;;;;;;;16.88;3.45;;;11.80;99.50;;;;;;5080846;27;20043;-72
2022/10/08 06:06:05;;;;;;;10.15;2.67;;;11.80;99.40;;;;;;5116164;27;20038;-72
2022/10/08 06:08:31;;;;;;;11.30;3.17;;;11.80;99.30;;;;;;5095900;27;20063;-72
2022/10/08 06:10:57;;;;;;;11.10;2.35;;;11.90;99.40;;;;;;5094461;27;20051;-72
2022/10/08 06:13:23;;;;;;;13.40;3.00;;;11.90;99.50;;;;;;5123685;27;20054;-71
2022/10/08 06:15:56;;;;;;;9.65;3.30;;;11.90;99.50;;;;;;5108696;27;20126;-72
2022/10/08 06:18:22;;;;;;;15.35;3.70;;;11.90;99.40;;;;;;5108323;27;20106;-72
2022/10/08 06:20:48;;;;;;;9.77;3.10;;;11.90;99.40;;;;;;5107077;27;20479;-71
2022/10/08 06:23:14;;;;;;;11.75;2.88;;;11.90;99.40;;;;;;5109560;27;20043;-72
2022/10/08 06:25:39;;;;;;;16.40;3.85;;;11.90;99.50;;;;;;5146556;27;20085;-72
2022/10/08 06:28:05;;;;;;;12.13;3.22;;;12.00;99.40;;;;;;5129118;27;20467;-72
2022/10/08 06:30:31;;;;;;;14.00;3.38;;;11.90;99.50;;;;;;5092413;27;20536;-72
2022/10/08 06:32:56;;;;;;;11.73;3.72;;;12.00;99.60;;;;;;5122976;27;20054;-72
2022/10/08 06:35:22;;;;;;;14.43;3.30;;;12.00;99.40;;;;;;5092425;27;20055;-72
2022/10/08 06:37:48;;;;;;;20.75;5.85;;;11.90;99.50;;;;;;5073748;27;20416;-72
2022/10/08 06:40:14;;;;;;;17.25;6.90;;;11.90;99.60;;;;;;5091793;27;20062;-72
2022/10/08 06:42:39;;;;;;;24.77;7.30;;;11.90;99.50;;;;;;5125393;27;20472;-72
2022/10/08 06:45:05;;;;;;;18.73;5.22;;;11.90;99.70;;;;;;5088929;27;20490;-73
2022/10/08 06:47:31;;;;;;;13.27;3.33;;;11.90;99.90;;;;;;5087301;27;20110;-72
2022/10/08 06:49:57;;;;;;;13.40;3.50;;;11.90;99.70;;;;;;5134602;27;20055;-72
2022/10/08 06:52:23;;;;;;;17.23;5.72;;;11.90;99.80;;;;;;5108369;27;20054;-72
2022/10/08 06:54:49;;;;;;;10.32;3.63;;;11.90;99.90;;;;;;5090755;28;20046;-72
2022/10/08 06:57:15;;;;;;;13.85;3.75;;;11.80;99.90;;;;;;5106616;28;20376;-72
2022/10/08 06:59:41;;;;;;;10.25;3.25;;;11.90;99.90;;;;;;5089121;27;20043;-72
2022/10/08 07:02:09;;;;;;;17.67;4.43;;;11.70;99.90;;;;;;5087363;27;20386;-71
2022/10/08 07:04:34;;;;;;;13.82;4.25;;;11.70;99.90;;;;;;5106598;28;20050;-71
2022/10/08 07:07:00;;;;;;;12.63;3.95;;;11.70;99.90;;;;;;5111441;27;20046;-71
2022/10/08 07:09:26;;;;;;;13.07;3.70;;;11.70;99.90;;;;;;5077703;27;20043;-72
2022/10/08 07:11:51;;;;;;;11.48;3.88;;;11.70;99.90;;;;;;5094123;27;20539;-71
2022/10/08 07:14:17;;;;;;;11.77;3.35;;;11.80;99.90;;;;;;5120411;27;20046;-71
2022/10/08 07:16:43;;;;;;;19.00;3.63;;;11.70;99.90;;;;;;5148987;27;20042;-72
2022/10/08 07:19:09;;;;;;;14.55;3.83;;;11.70;99.90;;;;;;5116810;27;20051;-72
2022/10/08 07:21:34;;;;;;;8.27;3.17;;;11.60;99.90;;;;;;5130831;27;20051;-72
2022/10/08 07:24:00;;;;;;;12.77;3.20;;;11.70;99.90;;;;;;5114137;27;20054;-71
2022/10/08 07:26:28;;;;;;;15.75;3.33;;;11.60;99.90;;;;;;5129173;27;20050;-71
2022/10/08 07:28:58;;;;;;;16.38;3.72;;;11.60;99.90;;;;;;5107272;27;20468;-71
2022/10/08 07:31:26;;;;;;;18.58;4.72;;;11.50;99.90;;;;;;5116199;27;20050;-71
2022/10/08 07:33:52;;;;;;;14.48;4.30;;;11.50;99.90;;;;;;5112556;27;20043;-71
2022/10/08 07:36:19;;;;;;;12.02;4.05;;;11.50;99.90;;;;;;5128738;27;20063;-72
2022/10/08 07:38:46;;;;;;;13.38;3.50;;;11.50;99.90;;;;;;5115256;27;20054;-72
2022/10/08 07:41:13;;;;;;;17.00;4.10;;;11.50;99.90;;;;;;5093849;27;20114;-71
2022/10/08 07:43:42;;;;;;;9.95;3.38;;;11.50;99.90;;;;;;5097126;27;20043;-71
2022/10/08 07:46:09;;;;;;;10.60;4.85;;;11.70;99.90;;;;;;5116081;27;20039;-71
2022/10/08 07:48:35;;;;;;;12.52;4.13;;;11.60;99.90;;;;;;5091525;27;20131;-72
2022/10/08 07:51:14;;;;;;;15.50;4.50;;;11.60;99.90;;;;;;5083862;27;20371;-72
2022/10/08 07:53:40;;;;;;;13.02;4.05;;;11.60;99.90;;;;;;5141089;27;20162;-73
2022/10/08 07:56:06;;;;;;;16.70;4.35;;;11.70;99.90;;;;;;5098926;27;20494;-71
2022/10/08 07:58:32;;;;;;;10.00;3.92;;;11.70;99.90;;;;;;5109322;27;20162;-71
2022/10/08 08:00:58;;;;;;;11.10;3.70;;;11.80;99.90;;;;;;5112473;27;20190;-71
2022/10/08 08:03:25;;;;;;;10.82;3.65;;;11.80;99.90;;;;;;5111713;27;20031;-71
2022/10/08 08:05:52;;;;;;;11.77;4.00;;;11.80;99.90;;;;;;5121203;27;20043;-72
2022/10/08 08:08:23;;;;;;;12.20;3.90;;;11.80;99.90;;;;;;5098972;27;20050;-71
2022/10/08 08:10:55;;;;;;;12.23;4.35;;;11.90;99.90;;;;;;5126871;27;20076;-72
2022/10/08 08:13:21;;;;;;;15.40;4.90;;;11.90;99.90;;;;;;5135911;27;20442;-72
2022/10/08 08:15:46;;;;;;;13.25;3.88;;;11.80;99.90;;;;;;5114306;27;20042;-72
2022/10/08 08:18:12;;;;;;;17.10;4.50;;;11.90;99.90;;;;;;5118181;27;20050;-72
2022/10/08 08:20:38;;;;;;;10.32;3.58;;;11.80;99.90;;;;;;5114406;27;20039;-74
2022/10/08 08:23:04;;;;;;;10.68;3.55;;;11.80;99.90;;;;;;5118063;27;20039;-75
2022/10/08 08:25:29;;;;;;;11.93;4.10;;;11.90;99.90;;;;;;5140655;27;20646;-71
2022/10/08 08:27:55;;;;;;;14.65;3.42;;;11.80;99.90;;;;;;5114306;27;20047;-72
2022/10/08 08:30:21;;;;;;;10.80;3.45;;;11.90;99.90;;;;;;5121757;27;20043;-72
2022/10/08 08:32:46;;;;;;;11.18;3.50;;;11.90;99.90;;;;;;5124421;27;20042;-73
2022/10/08 08:35:13;;;;;;;13.68;3.97;;;12.00;99.90;;;;;;5098384;27;20418;-72
2022/10/08 08:37:39;;;;;;;10.93;3.17;;;11.90;99.90;;;;;;5097301;27;20042;-72
2022/10/08 08:40:05;;;;;;;14.02;3.70;;;12.00;99.90;;;;;;5149640;27;20054;-72
2022/10/08 08:42:58;;;;;;;7.72;2.80;;;12.00;99.90;;;;;;5094041;27;20034;-73
2022/10/08 08:45:25;;;;;;;14.02;4.30;;;12.10;99.90;;;;;;5107895;27;20379;-71
2022/10/08 08:48:05;;;;;;;16.52;3.83;;;12.10;99.90;;;;;;5097861;27;20174;-72
2022/10/08 08:50:35;;;;;;;8.00;3.38;;;12.10;99.90;;;;;;5133631;27;20057;-72
2022/10/08 08:53:01;;;;;;;11.65;3.92;;;12.10;99.90;;;;;;5101285;27;20081;-71
2022/10/08 08:55:34;;;;;;;8.45;3.38;;;12.00;99.90;;;;;;5088720;27;20054;-70
2022/10/08 08:58:06;;;;;;;7.13;3.25;;;12.10;99.90;;;;;;5124915;27;20361;-72
2022/10/08 09:00:40;;;;;;;8.48;3.72;;;12.10;99.90;;;;;;5117649;27;20043;-73
2022/10/08 09:03:25;;;;;;;6.93;3.20;;;12.20;99.90;;;;;;5117216;27;20046;-74
2022/10/08 09:05:53;;;;;;;6.72;3.20;;;12.20;99.90;;;;;;5107196;27;20098;-73
2022/10/08 09:08:33;;;;;;;13.83;3.73;;;12.30;99.90;;;;;;5114936;27;20049;-72
2022/10/08 09:11:03;;;;;;;8.38;3.53;;;12.30;99.90;;;;;;5080014;27;20462;-68
2022/10/08 09:13:38;;;;;;;12.38;3.50;;;12.30;99.90;;;;;;5081156;27;20042;-67
2022/10/08 09:16:04;;;;;;;8.13;4.15;;;12.30;99.90;;;;;;5134371;27;20527;-67
2022/10/08 09:18:30;;;;;;;10.82;3.30;;;12.60;99.90;;;;;;5108677;27;20057;-68
2022/10/08 09:20:56;;;;;;;10.63;3.38;;;12.70;99.90;;;;;;5091515;27;20054;-68
2022/10/08 09:23:23;;;;;;;9.75;3.95;;;12.70;99.90;;;;;;5102284;27;20042;-67
2022/10/08 09:26:02;;;;;;;9.82;3.42;;;12.80;99.90;;;;;;5116822;27;20048;-65
2022/10/08 09:28:47;;;;;;;13.70;3.55;;;12.90;99.90;;;;;;5109792;27;20039;-67
2022/10/08 09:31:40;;;;;;;12.30;3.60;;;12.90;99.90;;;;;;5144732;27;20062;-65
2022/10/08 09:34:09;;;;;;;9.23;3.85;;;13.00;99.90;;;;;;5137100;27;20066;-67
2022/10/08 09:36:56;;;;;;;8.60;3.20;;;13.00;99.90;;;;;;5113576;27;20065;-66
2022/10/08 09:39:25;;;;;;;11.50;3.60;;;13.00;99.90;;;;;;5111967;27;20752;-67
2022/10/08 09:42:09;;;;;;;9.43;3.42;;;13.10;99.90;;;;;;5139155;27;20053;-67
2022/10/08 09:44:42;;;;;;;8.27;3.35;;;13.20;99.90;;;;;;5119058;27;20091;-67
2022/10/08 09:47:11;;;;;;;9.93;3.00;;;13.30;99.90;;;;;;5071309;27;20367;-68
2022/10/08 09:49:38;;;;;;;7.20;3.10;;;13.60;99.90;;;;;;5140517;27;20063;-67
2022/10/08 09:52:27;;;;;;;7.88;2.90;;;13.80;99.90;;;;;;5132460;27;20042;-67
2022/10/08 09:54:52;;;;;;;;;;;13.80;99.90;;;;;;5128513;27;20127;-67
2022/10/08 09:57:19;;;;;;;9.50;3.20;;;13.80;99.80;;;;;;5144698;27;20026;-68
2022/10/08 09:59:55;;;;;;;9.48;3.50;;;13.90;99.10;;;;;;5113353;27;20421;-68
2022/10/08 10:02:35;;;;;;;8.85;3.30;;;14.10;99.20;;;;;;5106479;27;20053;-66
2022/10/08 10:05:28;;;;;;;13.45;3.78;;;14.20;98.90;;;;;;5109179;27;20047;-67
2022/10/08 10:07:54;;;;;;;9.63;3.33;;;14.20;99.00;;;;;;5114669;27;20043;-68
2022/10/08 10:10:37;;;;;;;7.93;3.60;;;14.10;98.70;;;;;;5113552;27;20759;-66
2022/10/08 10:13:26;;;;;;;9.57;3.60;;;14.20;99.00;;;;;;5122525;27;20051;-67
2022/10/08 10:15:55;;;;;;;7.38;3.75;;;14.10;98.40;;;;;;5089270;27;20353;-67
2022/10/08 10:18:25;;;;;;;15.35;3.50;;;14.40;99.10;;;;;;5085114;27;20054;-67
2022/10/08 10:20:57;;;;;;;10.02;3.13;;;14.10;98.70;;;;;;5099227;27;20126;-68
2022/10/08 10:23:40;;;;;;;8.07;2.70;;;14.60;98.60;;;;;;5107785;27;20705;-67
2022/10/08 10:26:18;;;;;;;8.65;3.00;;;14.80;97.60;;;;;;5111238;27;20047;-67
2022/10/08 10:28:47;;;;;;;9.75;2.60;;;14.70;97.40;;;;;;5111619;27;20107;-67
2022/10/08 10:31:14;;;;;;;8.50;3.35;;;14.50;97.90;;;;;;5105185;27;20074;-68
2022/10/08 10:33:47;;;;;;;7.65;2.72;;;14.80;98.20;;;;;;5120933;27;20047;-68
2022/10/08 10:36:13;;;;;;;12.32;3.60;;;14.90;97.80;;;;;;5110047;27;20069;-68
2022/10/08 10:38:42;;;;;;;8.10;3.33;;;15.00;96.90;;;;;;5112530;27;20078;-68
2022/10/08 10:41:17;;;;;;;9.27;3.05;;;14.90;96.60;;;;;;5109437;27;20057;-67
2022/10/08 10:43:56;;;;;;;8.20;2.85;;;15.10;96.40;;;;;;5141665;27;20043;-68
2022/10/08 10:46:31;;;;;;;8.60;2.60;;;15.40;95.50;;;;;;5111288;27;20073;-68
2022/10/08 10:48:57;;;;;;;7.72;3.15;;;16.00;95.10;;;;;;5137832;27;20074;-68
2022/10/08 10:51:50;;;;;;;9.20;2.50;;;15.80;94.30;;;;;;5104695;27;20494;-68
2022/10/08 10:54:33;;;;;;;6.45;2.42;;;15.80;93.00;;;;;;5142844;27;20050;-70
2022/10/08 10:57:29;;;;;;;10.93;2.92;;;15.10;94.20;;;;;;5129722;27;20050;-69
2022/10/08 11:00:21;;;;;;;9.43;2.35;;;15.00;94.30;;;;;;5116266;27;20042;-69
2022/10/08 11:03:04;;;;;;;8.43;2.40;;;15.80;93.80;;;;;;5106183;27;20054;-68
2022/10/08 11:05:31;;;;;;;7.20;2.50;;;16.30;92.60;;;;;;5110997;27;20156;-69
2022/10/08 11:08:16;;;;;;;7.88;2.42;;;16.20;92.70;;;;;;5094195;27;20107;-70
2022/10/08 11:10:58;;;;;;;9.90;2.58;;;16.60;91.40;;;;;;5122419;27;20605;-68
2022/10/08 11:13:27;;;;;;;7.75;2.58;;;17.40;91.20;;;;;;5128266;27;20046;-68
2022/10/08 11:16:12;;;;;;;7.90;2.33;;;18.10;88.10;;;;;;5107461;27;20071;-68
2022/10/08 11:18:53;;;;;;;8.80;2.95;;;18.00;87.30;;;;;;5108885;27;20074;-68
2022/10/08 11:21:40;;;;;;;7.45;2.20;;;18.20;85.40;;;;;;5099814;27;20479;-68
2022/10/08 11:24:42;;;;;;;6.95;3.25;;;17.20;89.60;;;;;;5135697;27;20582;-68
2022/10/08 11:27:30;;;;;;;8.23;3.55;;;18.70;85.70;;;;;;5143072;27;20062;-68
2022/10/08 11:30:13;;;;;;;8.18;2.42;;;18.70;84.20;;;;;;5126807;27;20046;-69
2022/10/08 11:32:51;;;;;;;9.60;2.20;;;17.70;87.20;;;;;;5089546;27;20043;-68
2022/10/08 11:35:23;;;;;;;;;;;17.10;90.50;;;;;;5063433;28;20059;-68
2022/10/08 11:38:20;;;;;;;6.38;2.40;;;17.30;90.20;;;;;;5124252;28;19938;-68
2022/10/08 11:41:01;;;;;;;11.57;2.47;;;17.20;88.60;;;;;;5077403;28;20047;-69
2022/10/08 11:43:32;;;;;;;9.55;2.47;;;17.10;89.50;;;;;;5093761;27;20034;-68
2022/10/08 11:46:21;;;;;;;7.40;2.38;;;17.00;89.30;;;;;;5089716;28;20057;-69
2022/10/08 11:48:47;;;;;;;5.55;1.73;;;17.00;87.80;;;;;;5097650;28;20051;-68
2022/10/08 11:51:19;;;;;;;10.25;2.25;;;16.70;89.50;;;;;;5112713;28;20058;-68
2022/10/08 11:54:27;;;;;;;12.20;2.80;;;16.50;90.60;;;;;;5123036;28;20039;-68
2022/10/08 11:57:20;;;;;;;9.35;2.50;;;17.00;90.50;;;;;;5020954;28;20195;-68
2022/10/08 11:59:52;;;;;;;11.27;2.55;;;17.10;90.60;;;;;;5081174;27;20539;-68
2022/10/08 12:02:20;;;;;;;20.67;2.75;;;17.40;90.00;;;;;;5127380;27;20039;-69
2022/10/08 12:04:47;;;;;;;9.57;2.40;;;17.40;89.00;;;;;;5127919;27;20050;-69
2022/10/08 12:07:37;;;;;;;10.80;2.40;;;17.40;89.30;;;;;;5108807;27;20039;-68
2022/10/08 12:10:06;;;;;;;6.13;1.90;;;16.80;89.70;;;;;;5127339;27;20062;-68
2022/10/08 12:12:51;;;;;;;8.18;2.58;;;16.40;90.50;;;;;;5119532;27;20086;-68
2022/10/08 12:15:23;;;;;;;11.10;2.08;;;16.00;91.30;;;;;;5101678;28;20043;-68
2022/10/08 12:17:55;;;;;;;13.27;2.95;;;15.90;91.20;;;;;;5132740;27;20038;-67
2022/10/08 12:20:25;;;;;;;6.90;2.20;;;15.90;91.30;;;;;;5125867;27;20205;-68
2022/10/08 12:23:10;;;;;;;6.03;1.80;;;15.80;91.20;;;;;;5111337;27;20043;-68
2022/10/08 12:25:43;;;;;;;6.55;1.90;;;17.60;87.90;;;;;;5108561;28;20128;-69
2022/10/08 12:28:34;;;;;;;8.38;1.85;;;18.50;83.20;;;;;;5090864;28;20186;-69
2022/10/08 12:31:21;;;;;;;6.38;2.25;;;18.60;79.90;;;;;;5114896;27;20367;-69
2022/10/08 12:34:17;;;;;;;6.28;1.83;;;18.70;78.00;;;;;;5107081;27;20581;-69
2022/10/08 12:36:45;;;;;;;9.20;2.22;;;18.80;78.30;;;;;;5084794;27;20059;-71
2022/10/08 12:39:16;;;;;;;8.27;2.10;;;18.30;77.40;;;;;;5089899;27;20484;-70
2022/10/08 12:42:16;;;;;;;3.50;0.95;;;18.40;79.80;;;;;;5085184;27;20503;-70
2022/10/08 12:45:00;;;;;;;3.60;0.70;;;16.90;80.70;;;;;;5107777;28;20127;-71
2022/10/08 12:47:52;;;;;;;2.10;0.57;;;15.50;87.70;;;;;;5115102;27;20140;-73
2022/10/08 12:50:36;;;;;;;3.08;1.00;;;14.80;90.00;;;;;;5074387;27;21428;-72
2022/10/08 12:53:02;;;;;;;7.13;1.27;;;14.30;92.90;;;;;;5089968;28;20077;-71
2022/10/08 12:55:27;;;;;;;5.45;1.33;;;14.00;95.80;;;;;;5098676;27;20043;-72
2022/10/08 12:57:53;;;;;;;5.60;1.13;;;13.60;97.40;;;;;;5105382;28;20426;-72
2022/10/08 13:00:25;;;;;;;7.80;1.60;;;13.30;98.80;;;;;;5118330;27;20062;-72
2022/10/08 13:03:01;;;;;;;4.35;1.25;;;12.70;99.70;;;;;;5066203;28;20047;-72
2022/10/08 13:05:32;;;;;;;5.43;1.45;;;12.70;99.90;;;;;;5083445;27;20043;-73